createdAt,value
2019-03-25T00:01:33.018Z,98499.47
2019-03-25T00:05:37.913Z,98495.19
2019-03-25T00:09:42.806Z,98497.31
2019-03-25T00:13:47.762Z,98487.74
2019-03-25T00:17:52.650Z,98487.91
2019-03-25T00:21:58.006Z,98486.77
2019-03-25T00:26:02.899Z,98482.98
2019-03-25T00:30:07.964Z,98480.52
2019-03-25T00:34:12.838Z,98470.20
2019-03-25T00:38:17.730Z,98468.13
2019-03-25T00:42:23.693Z,98465.58
2019-03-25T00:46:28.587Z,98460.44
2019-03-25T00:50:33.479Z,98466.97
2019-03-25T00:54:49.323Z,98471.38
2019-03-25T00:58:44.964Z,98468.83
2019-03-25T01:02:49.862Z,98472.34
2019-03-25T01:06:54.762Z,98474.97
2019-03-25T01:10:59.655Z,98468.09
2019-03-25T01:15:06.926Z,98471.16
2019-03-25T01:19:11.812Z,98462.55
2019-03-25T01:23:16.713Z,98465.62
2019-03-25T01:27:21.604Z,98464.36
2019-03-25T01:31:26.495Z,98464.83
2019-03-25T01:35:31.398Z,98453.63
2019-03-25T01:39:36.306Z,98450.17
2019-03-25T01:43:41.194Z,98443.73
2019-03-25T01:47:46.108Z,98434.66
2019-03-25T01:51:51.002Z,98440.31
2019-03-25T01:55:55.896Z,98441.61
2019-03-25T02:00:00.790Z,98432.14
2019-03-25T02:04:05.685Z,98425.27
2019-03-25T02:08:10.575Z,98419.22
2019-03-25T02:12:15.473Z,98419.22
2019-03-25T02:16:20.360Z,98411.48
2019-03-25T02:20:26.787Z,98402.41
2019-03-25T02:24:32.898Z,98393.77
2019-03-25T02:28:37.788Z,98397.27
2019-03-25T02:32:42.688Z,98393.84
2019-03-25T02:36:47.586Z,98395.10
2019-03-25T02:40:52.478Z,98396.80
2019-03-25T02:44:57.380Z,98386.43
2019-03-25T02:49:02.259Z,98378.69
2019-03-25T02:53:07.154Z,98380.38
2019-03-25T02:57:12.055Z,98378.22
2019-03-25T03:01:16.991Z,98381.20
2019-03-25T03:05:21.854Z,98369.08
2019-03-25T03:09:26.742Z,98363.03
2019-03-25T03:13:31.637Z,98360.86
2019-03-25T03:17:36.539Z,98354.73
2019-03-25T03:21:41.499Z,98348.98
2019-03-25T03:25:56.965Z,98340.30
2019-03-25T03:29:52.986Z,98343.66
2019-03-25T03:33:57.903Z,98334.14
2019-03-25T03:38:02.782Z,98320.36
2019-03-25T03:42:07.749Z,98328.14
2019-03-25T03:46:12.646Z,98316.84
2019-03-25T03:50:25.073Z,98302.91
2019-03-25T03:54:29.956Z,98302.87
2019-03-25T03:58:35.033Z,98305.56
2019-03-25T04:02:40.015Z,98293.19
2019-03-25T04:06:44.888Z,98290.69
2019-03-25T04:10:49.789Z,98278.26
2019-03-25T04:14:54.685Z,98275.30
2019-03-25T04:18:59.570Z,98271.50
2019-03-25T04:23:04.470Z,98268.56
2019-03-25T04:27:09.367Z,98267.27
2019-03-25T04:31:14.264Z,98263.77
2019-03-25T04:35:19.149Z,98253.63
2019-03-25T04:39:24.042Z,98242.69
2019-03-25T04:43:28.946Z,98247.75
2019-03-25T04:47:33.841Z,98239.75
2019-03-25T04:51:38.737Z,98237.09
2019-03-25T04:55:43.635Z,98241.24
2019-03-25T04:59:48.522Z,98229.88
2019-03-25T05:03:54.490Z,98235.71
2019-03-25T05:07:59.384Z,98239.84
2019-03-25T05:12:04.284Z,98231.42
2019-03-25T05:16:09.180Z,98234.81
2019-03-25T05:20:14.066Z,98240.34
2019-03-25T05:24:18.969Z,98232.41
2019-03-25T05:28:23.865Z,98230.98
2019-03-25T05:32:28.760Z,98236.53
2019-03-25T05:36:33.666Z,98230.46
2019-03-25T05:40:38.553Z,98223.09
2019-03-25T05:44:43.456Z,98231.31
2019-03-25T05:48:48.347Z,98231.31
2019-03-25T05:52:53.250Z,98229.95
2019-03-25T05:57:02.758Z,98231.97
2019-03-25T06:01:04.917Z,98214.91
2019-03-25T06:05:09.868Z,98202.13
2019-03-25T06:09:14.768Z,98184.78
2019-03-25T06:13:19.664Z,98193.00
2019-03-25T06:17:24.563Z,98201.78
2019-03-25T06:21:29.457Z,98210.77
2019-03-25T06:25:34.350Z,98198.52
2019-03-25T06:29:39.244Z,98196.45
2019-03-25T06:33:44.150Z,98201.66
2019-03-25T06:37:49.040Z,98199.25
2019-03-25T06:41:53.941Z,98213.11
2019-03-25T06:45:58.899Z,98208.78
2019-03-25T06:50:06.000Z,98205.47
2019-03-25T06:54:10.885Z,98208.66
2019-03-25T06:58:15.789Z,98201.78
2019-03-25T07:02:20.684Z,98207.80
2019-03-25T07:06:25.572Z,98219.54
2019-03-25T07:10:32.301Z,98223.70
2019-03-25T07:14:37.190Z,98233.45
2019-03-25T07:18:42.086Z,98236.28
2019-03-25T07:22:46.982Z,98237.50
2019-03-25T07:26:51.887Z,98239.11
2019-03-25T07:30:56.767Z,98252.67
2019-03-25T07:35:01.665Z,98245.63
2019-03-25T07:39:07.130Z,98246.46
2019-03-25T07:43:12.028Z,98260.42
2019-03-25T07:47:16.928Z,98261.92
2019-03-25T07:51:21.812Z,98266.16
2019-03-25T07:55:26.726Z,98267.41
2019-03-25T07:59:31.653Z,98270.09
2019-03-25T08:03:36.570Z,98277.59
2019-03-25T08:07:41.447Z,98273.73
2019-03-25T08:11:46.391Z,98278.76
2019-03-25T08:15:51.255Z,98269.70
2019-03-25T08:19:56.116Z,98272.05
2019-03-25T08:24:01.013Z,98274.19
2019-03-25T08:28:05.988Z,98274.19
2019-03-25T08:32:10.874Z,98272.64
2019-03-25T08:36:15.766Z,98270.88
2019-03-25T08:40:20.671Z,98277.05
2019-03-25T08:44:25.565Z,98264.37
2019-03-25T08:48:30.464Z,98277.70
2019-03-25T08:52:35.356Z,98274.44
2019-03-25T08:56:41.280Z,98300.83
2019-03-25T09:00:46.173Z,98290.69
2019-03-25T09:04:51.073Z,98300.57
2019-03-25T09:08:56.799Z,98293.73
2019-03-25T09:13:01.714Z,98298.09
2019-03-25T09:17:06.880Z,98288.08
2019-03-25T09:21:12.726Z,98282.67
2019-03-25T09:25:17.973Z,98273.86
2019-03-25T09:29:22.871Z,98272.56
2019-03-25T09:33:27.765Z,98260.75
2019-03-25T09:37:32.655Z,98261.73
2019-03-25T09:41:38.616Z,98260.05
2019-03-25T09:45:43.512Z,98260.38
2019-03-25T09:49:49.388Z,98281.86
2019-03-25T09:53:55.256Z,98292.07
2019-03-25T09:58:00.152Z,98270.09
2019-03-25T10:02:05.191Z,98284.76
2019-03-25T10:06:10.090Z,98286.39
2019-03-25T10:10:15.120Z,98288.35
2019-03-25T10:14:20.018Z,98280.44
2019-03-25T10:18:24.921Z,98278.36
2019-03-25T10:22:29.818Z,98277.02
2019-03-25T10:26:34.703Z,98280.97
2019-03-25T10:30:39.659Z,98294.68
2019-03-25T10:34:45.917Z,98273.86
2019-03-25T10:38:50.814Z,98270.67
2019-03-25T10:42:55.705Z,98264.20
2019-03-25T10:47:00.635Z,98265.05
2019-03-25T10:51:05.603Z,98257.47
2019-03-25T10:55:11.734Z,98279.56
2019-03-25T10:59:17.703Z,98281.73
2019-03-25T11:03:22.605Z,98286.47
2019-03-25T11:07:29.463Z,98288.16
2019-03-25T11:11:34.094Z,98276.61
2019-03-25T11:15:38.992Z,98263.39
2019-03-25T11:19:43.891Z,98282.18
2019-03-25T11:23:48.787Z,98284.64
2019-03-25T11:27:54.591Z,98303.55
2019-03-25T11:31:59.879Z,98283.24
2019-03-25T11:36:05.112Z,98300.55
2019-03-25T11:40:11.232Z,98297.23
2019-03-25T11:44:16.135Z,98299.14
2019-03-25T11:48:21.022Z,98312.58
2019-03-25T11:52:25.903Z,98311.88
2019-03-25T11:56:30.788Z,98311.15
2019-03-25T12:00:36.745Z,98302.94
2019-03-25T12:04:41.635Z,98326.39
2019-03-25T12:08:46.533Z,98319.95
2019-03-25T12:12:51.434Z,98312.41
2019-03-25T12:16:56.324Z,98305.67
2019-03-25T12:21:01.208Z,98307.71
2019-03-25T12:25:07.713Z,98309.16
2019-03-25T12:29:12.604Z,98297.41
2019-03-25T12:33:17.508Z,98290.73
2019-03-25T12:37:22.387Z,98291.45
2019-03-25T12:41:27.343Z,98294.11
2019-03-25T12:45:32.243Z,98300.02
2019-03-25T12:49:37.139Z,98293.94
2019-03-25T12:53:42.029Z,98298.87
2019-03-25T12:57:47.887Z,98302.05
2019-03-25T13:01:53.507Z,98322.45
2019-03-25T13:05:59.447Z,98335.19
2019-03-25T13:10:05.879Z,98332.26
2019-03-25T13:14:11.847Z,98348.91
2019-03-25T13:18:16.731Z,98362.12
2019-03-25T13:22:21.622Z,98357.68
2019-03-25T13:26:27.597Z,98349.63
2019-03-25T13:30:32.480Z,98358.73
2019-03-25T13:34:38.439Z,98354.84
2019-03-25T13:38:43.329Z,98365.30
2019-03-25T13:42:48.379Z,98380.20
2019-03-25T13:46:53.275Z,98389.38
2019-03-25T13:50:58.170Z,98387.23
2019-03-25T13:55:03.063Z,98387.39
2019-03-25T13:59:07.954Z,98377.55
2019-03-25T14:03:12.833Z,98372.23
2019-03-25T14:07:17.723Z,98364.50
2019-03-25T14:11:22.618Z,98358.33
2019-03-25T14:15:27.511Z,98348.61
2019-03-25T14:19:32.415Z,98340.58
2019-03-25T14:23:37.282Z,98347.02
2019-03-25T14:27:42.185Z,98345.59
2019-03-25T14:31:47.062Z,98341.81
2019-03-25T14:35:51.956Z,98344.62
2019-03-25T14:39:57.922Z,98346.02
2019-03-25T14:44:02.944Z,98354.02
2019-03-25T14:48:07.821Z,98349.48
2019-03-25T14:52:12.711Z,98352.23
2019-03-25T14:56:17.614Z,98342.60
2019-03-25T15:00:25.398Z,98350.44
2019-03-25T15:04:29.103Z,98368.58
2019-03-25T15:08:33.994Z,98388.84
2019-03-25T15:12:38.879Z,98382.11
2019-03-25T15:16:43.769Z,98387.30
2019-03-25T15:20:48.664Z,98385.48
2019-03-25T15:24:53.632Z,98383.09
2019-03-25T15:28:58.522Z,98390.18
2019-03-25T15:33:03.402Z,98392.86
2019-03-25T15:37:08.305Z,98386.70
2019-03-25T15:41:13.267Z,98393.02
2019-03-25T15:45:18.168Z,98390.61
2019-03-25T15:49:23.067Z,98409.99
2019-03-25T15:53:28.836Z,98417.63
2019-03-25T15:57:33.803Z,98414.91
2019-03-25T16:01:38.705Z,98412.05
2019-03-25T16:05:43.594Z,98425.22
2019-03-25T16:09:48.486Z,98431.63
2019-03-25T16:13:53.368Z,98430.63
2019-03-25T16:17:58.259Z,98450.12
2019-03-25T16:22:03.163Z,98433.52
2019-03-25T16:26:08.046Z,98447.41
2019-03-25T16:30:13.302Z,98453.06
2019-03-25T16:34:23.098Z,98455.88
2019-03-25T16:38:27.953Z,98466.02
2019-03-25T16:42:32.847Z,98465.61
2019-03-25T16:46:37.740Z,98478.48
2019-03-25T16:50:42.635Z,98498.56
2019-03-25T16:54:47.525Z,98503.36
2019-03-25T16:58:52.411Z,98514.53
2019-03-25T17:02:57.304Z,98496.12
2019-03-25T17:07:02.197Z,98495.38
2019-03-25T17:11:08.192Z,98517.11
2019-03-25T17:15:13.210Z,98523.55
2019-03-25T17:19:18.094Z,98525.77
2019-03-25T17:23:22.984Z,98533.89
2019-03-25T17:27:27.879Z,98516.67
2019-03-25T17:31:32.771Z,98514.58
2019-03-25T17:35:37.665Z,98510.31
2019-03-25T17:39:42.552Z,98518.34
2019-03-25T17:43:47.434Z,98529.23
2019-03-25T17:47:52.321Z,98548.80
2019-03-25T17:51:57.220Z,98551.88
2019-03-25T17:56:02.097Z,98566.93
2019-03-25T18:00:10.000Z,98571.77
2019-03-25T18:04:14.955Z,98581.34
2019-03-25T18:08:19.860Z,98595.22
2019-03-25T18:12:24.755Z,98599.98
2019-03-25T18:16:29.713Z,98609.14
2019-03-25T18:20:34.612Z,98617.54
2019-03-25T18:24:39.501Z,98638.81
2019-03-25T18:28:44.400Z,98639.23
2019-03-25T18:32:49.298Z,98656.42
2019-03-25T18:36:54.187Z,98662.15
2019-03-25T18:40:59.081Z,98670.08
2019-03-25T18:45:04.954Z,98670.16
2019-03-25T18:49:09.850Z,98666.81
2019-03-25T18:53:14.743Z,98677.25
2019-03-25T18:57:19.648Z,98681.69
2019-03-25T19:01:24.694Z,98678.33
2019-03-25T19:05:29.577Z,98686.58
2019-03-25T19:09:35.536Z,98699.98
2019-03-25T19:13:40.438Z,98702.12
2019-03-25T19:17:45.321Z,98710.28
2019-03-25T19:21:50.242Z,98718.89
2019-03-25T19:25:55.113Z,98721.06
2019-03-25T19:30:00.029Z,98726.25
2019-03-25T19:34:04.890Z,98727.58
2019-03-25T19:38:09.780Z,98731.94
2019-03-25T19:42:14.671Z,98740.56
2019-03-25T19:46:19.573Z,98741.83
2019-03-25T19:50:24.452Z,98745.73
2019-03-25T19:54:29.344Z,98757.38
2019-03-25T19:58:34.245Z,98759.81
2019-03-25T20:02:39.188Z,98767.34
2019-03-25T20:06:44.075Z,98773.09
2019-03-25T20:10:48.948Z,98788.39
2019-03-25T20:14:53.860Z,98799.73
2019-03-25T20:18:58.775Z,98804.58
2019-03-25T20:23:03.974Z,98815.03
2019-03-25T20:27:08.821Z,98815.55
2019-03-25T20:31:13.715Z,98819.52
2019-03-25T20:35:18.606Z,98831.23
2019-03-25T20:39:23.549Z,98837.28
2019-03-25T20:43:28.395Z,98840.31
2019-03-25T20:47:33.288Z,98849.39
2019-03-25T20:51:38.186Z,98850.25
2019-03-25T20:55:43.076Z,98859.72
2019-03-25T20:59:49.031Z,98857.55
2019-03-25T21:03:53.906Z,98869.67
2019-03-25T21:07:58.828Z,98872.69
2019-03-25T21:12:03.690Z,98874.02
2019-03-25T21:16:08.577Z,98880.95
2019-03-25T21:20:13.523Z,98877.47
2019-03-25T21:24:18.410Z,98878.77
2019-03-25T21:28:24.367Z,98882.58
2019-03-25T21:32:29.272Z,98893.36
2019-03-25T21:36:34.152Z,98892.95
2019-03-25T21:40:39.052Z,98901.59
2019-03-25T21:44:43.948Z,98920.64
2019-03-25T21:48:48.895Z,98924.50
2019-03-25T21:52:54.847Z,98926.64
2019-03-25T21:56:59.781Z,98933.13
2019-03-25T22:01:04.611Z,98930.11
2019-03-25T22:05:09.491Z,98933.52
2019-03-25T22:09:14.381Z,98943.06
2019-03-25T22:13:19.274Z,98943.03
2019-03-25T22:17:24.162Z,98939.55
2019-03-25T22:21:29.620Z,98942.58
2019-03-25T22:25:34.511Z,98944.31
2019-03-25T22:29:39.407Z,98946.94
2019-03-25T22:33:44.289Z,98951.25
2019-03-25T22:37:49.186Z,98960.34
2019-03-25T22:41:55.049Z,98968.98
2019-03-25T22:45:59.926Z,98973.29
2019-03-25T22:50:07.325Z,98985.83
2019-03-25T22:54:13.186Z,98987.13
2019-03-25T22:58:18.077Z,98989.72
2019-03-25T23:02:22.971Z,98992.76
2019-03-25T23:06:27.850Z,98992.78
2019-03-25T23:10:32.738Z,98999.71
2019-03-25T23:14:37.634Z,99010.55
2019-03-25T23:18:42.523Z,99007.95
2019-03-25T23:22:47.427Z,99017.06
2019-03-25T23:26:52.318Z,99017.05
2019-03-25T23:30:57.203Z,99017.05
2019-03-25T23:35:02.098Z,99014.48
2019-03-25T23:39:07.828Z,99024.43
2019-03-25T23:43:14.293Z,99032.16
2019-03-25T23:47:19.192Z,99025.23
2019-03-25T23:51:24.129Z,99029.55
2019-03-25T23:55:29.022Z,99017.02
2019-03-25T23:59:33.916Z,99021.33
